sensor_id;sensor_type;location;lat;lon;timestamp;P1;durP1;ratioP1;P2;durP2;ratioP2
20381;SDS011;10350;51.280;12.400;2023-02-12T00:02:07;64.80;;;25.90;;
20381;SDS011;10350;51.280;12.400;2023-02-12T00:04:33;67.05;;;25.95;;
20381;SDS011;10350;51.280;12.400;2023-02-12T00:06:59;64.53;;;25.08;;
20381;SDS011;10350;51.280;12.400;2023-02-12T00:09:25;60.63;;;25.60;;
20381;SDS011;10350;51.280;12.400;2023-02-12T00:11:51;64.90;;;24.58;;
20381;SDS011;10350;51.280;12.400;2023-02-12T00:14:17;72.68;;;26.33;;
20381;SDS011;10350;51.280;12.400;2023-02-12T00:16:43;67.85;;;24.83;;
20381;SDS011;10350;51.280;12.400;2023-02-12T00:19:09;62.63;;;24.05;;
20381;SDS011;10350;51.280;12.400;2023-02-12T00:21:35;67.35;;;25.52;;
20381;SDS011;10350;51.280;12.400;2023-02-12T00:24:01;65.15;;;24.52;;
20381;SDS011;10350;51.280;12.400;2023-02-12T00:26:27;62.90;;;24.08;;
20381;SDS011;10350;51.280;12.400;2023-02-12T00:28:53;65.97;;;24.83;;
20381;SDS011;10350;51.280;12.400;2023-02-12T00:31:21;66.95;;;25.35;;
20381;SDS011;10350;51.280;12.400;2023-02-12T00:33:47;68.57;;;25.70;;
20381;SDS011;10350;51.280;12.400;2023-02-12T00:36:14;67.30;;;25.33;;
20381;SDS011;10350;51.280;12.400;2023-02-12T00:38:40;65.32;;;24.55;;
20381;SDS011;10350;51.280;12.400;2023-02-12T00:41:06;65.43;;;23.67;;
20381;SDS011;10350;51.280;12.400;2023-02-12T00:43:32;67.25;;;25.13;;
20381;SDS011;10350;51.280;12.400;2023-02-12T00:45:59;66.65;;;25.58;;
20381;SDS011;10350;51.280;12.400;2023-02-12T00:48:24;55.72;;;23.38;;
20381;SDS011;10350;51.280;12.400;2023-02-12T00:50:50;69.32;;;26.35;;
20381;SDS011;10350;51.280;12.400;2023-02-12T00:53:16;63.90;;;23.17;;
20381;SDS011;10350;51.280;12.400;2023-02-12T00:55:43;68.03;;;25.45;;
20381;SDS011;10350;51.280;12.400;2023-02-12T00:58:09;64.05;;;25.10;;
20381;SDS011;10350;51.280;12.400;2023-02-12T01:00:36;55.53;;;21.95;;
20381;SDS011;10350;51.280;12.400;2023-02-12T01:03:02;67.25;;;25.13;;
20381;SDS011;10350;51.280;12.400;2023-02-12T01:05:28;60.83;;;22.88;;
20381;SDS011;10350;51.280;12.400;2023-02-12T01:07:54;65.75;;;25.55;;
20381;SDS011;10350;51.280;12.400;2023-02-12T01:10:20;66.63;;;24.80;;
20381;SDS011;10350;51.280;12.400;2023-02-12T01:12:47;61.65;;;23.23;;
20381;SDS011;10350;51.280;12.400;2023-02-12T01:15:13;58.78;;;23.42;;
20381;SDS011;10350;51.280;12.400;2023-02-12T01:17:39;62.88;;;23.70;;
20381;SDS011;10350;51.280;12.400;2023-02-12T01:20:06;70.03;;;25.50;;
20381;SDS011;10350;51.280;12.400;2023-02-12T01:22:33;65.28;;;26.15;;
20381;SDS011;10350;51.280;12.400;2023-02-12T01:24:59;61.97;;;23.83;;
20381;SDS011;10350;51.280;12.400;2023-02-12T01:27:25;67.05;;;23.75;;
20381;SDS011;10350;51.280;12.400;2023-02-12T01:29:51;64.47;;;23.70;;
20381;SDS011;10350;51.280;12.400;2023-02-12T01:32:17;66.35;;;24.15;;
20381;SDS011;10350;51.280;12.400;2023-02-12T01:34:43;73.13;;;24.35;;
20381;SDS011;10350;51.280;12.400;2023-02-12T01:37:09;69.57;;;24.20;;
20381;SDS011;10350;51.280;12.400;2023-02-12T01:39:34;60.38;;;25.17;;
20381;SDS011;10350;51.280;12.400;2023-02-12T01:42:00;70.85;;;24.27;;
20381;SDS011;10350;51.280;12.400;2023-02-12T01:44:28;58.22;;;22.02;;
20381;SDS011;10350;51.280;12.400;2023-02-12T01:46:55;52.97;;;22.80;;
20381;SDS011;10350;51.280;12.400;2023-02-12T01:49:22;59.95;;;22.88;;
20381;SDS011;10350;51.280;12.400;2023-02-12T01:51:50;62.35;;;23.88;;
20381;SDS011;10350;51.280;12.400;2023-02-12T01:54:17;63.58;;;22.73;;
20381;SDS011;10350;51.280;12.400;2023-02-12T01:56:44;57.58;;;21.77;;
20381;SDS011;10350;51.280;12.400;2023-02-12T01:59:10;53.90;;;21.38;;
20381;SDS011;10350;51.280;12.400;2023-02-12T02:01:37;67.28;;;25.45;;
20381;SDS011;10350;51.280;12.400;2023-02-12T02:04:04;54.92;;;23.17;;
20381;SDS011;10350;51.280;12.400;2023-02-12T02:06:33;52.40;;;21.98;;
20381;SDS011;10350;51.280;12.400;2023-02-12T02:09:00;61.90;;;23.88;;
20381;SDS011;10350;51.280;12.400;2023-02-12T02:11:26;63.03;;;23.85;;
20381;SDS011;10350;51.280;12.400;2023-02-12T02:14:30;53.88;;;20.90;;
20381;SDS011;10350;51.280;12.400;2023-02-12T02:19:40;62.17;;;22.60;;
20381;SDS011;10350;51.280;12.400;2023-02-12T02:22:18;54.83;;;22.63;;
20381;SDS011;10350;51.280;12.400;2023-02-12T02:27:19;53.10;;;21.13;;
20381;SDS011;10350;51.280;12.400;2023-02-12T02:32:35;54.17;;;20.90;;
20381;SDS011;10350;51.280;12.400;2023-02-12T02:35:09;49.15;;;20.85;;
20381;SDS011;10350;51.280;12.400;2023-02-12T02:37:43;56.42;;;22.13;;
20381;SDS011;10350;51.280;12.400;2023-02-12T02:40:15;57.42;;;21.55;;
20381;SDS011;10350;51.280;12.400;2023-02-12T02:42:44;46.50;;;19.55;;
20381;SDS011;10350;51.280;12.400;2023-02-12T02:45:13;53.40;;;22.48;;
20381;SDS011;10350;51.280;12.400;2023-02-12T02:50:10;53.70;;;21.33;;
20381;SDS011;10350;51.280;12.400;2023-02-12T02:52:39;50.55;;;20.95;;
20381;SDS011;10350;51.280;12.400;2023-02-12T02:55:06;50.70;;;21.17;;
20381;SDS011;10350;51.280;12.400;2023-02-12T02:57:37;53.03;;;21.33;;
20381;SDS011;10350;51.280;12.400;2023-02-12T03:00:11;52.30;;;21.30;;
20381;SDS011;10350;51.280;12.400;2023-02-12T03:02:39;49.70;;;20.50;;
20381;SDS011;10350;51.280;12.400;2023-02-12T03:05:09;44.95;;;19.42;;
20381;SDS011;10350;51.280;12.400;2023-02-12T03:07:36;52.63;;;20.67;;
20381;SDS011;10350;51.280;12.400;2023-02-12T03:10:13;55.22;;;20.42;;
20381;SDS011;10350;51.280;12.400;2023-02-12T03:15:28;51.72;;;19.85;;
20381;SDS011;10350;51.280;12.400;2023-02-12T03:17:57;57.00;;;20.98;;
20381;SDS011;10350;51.280;12.400;2023-02-12T03:20:25;48.28;;;20.10;;
20381;SDS011;10350;51.280;12.400;2023-02-12T03:23:03;53.20;;;21.13;;
20381;SDS011;10350;51.280;12.400;2023-02-12T03:25:51;53.30;;;20.75;;
20381;SDS011;10350;51.280;12.400;2023-02-12T03:28:19;50.97;;;19.85;;
20381;SDS011;10350;51.280;12.400;2023-02-12T03:31:06;51.92;;;21.02;;
20381;SDS011;10350;51.280;12.400;2023-02-12T03:33:45;48.33;;;20.15;;
20381;SDS011;10350;51.280;12.400;2023-02-12T03:36:19;49.97;;;20.25;;
20381;SDS011;10350;51.280;12.400;2023-02-12T03:38:48;59.38;;;21.60;;
20381;SDS011;10350;51.280;12.400;2023-02-12T03:41:30;51.97;;;20.95;;
20381;SDS011;10350;51.280;12.400;2023-02-12T03:44:03;50.00;;;21.42;;
20381;SDS011;10350;51.280;12.400;2023-02-12T03:46:39;54.55;;;20.55;;
20381;SDS011;10350;51.280;12.400;2023-02-12T03:49:09;50.92;;;21.15;;
20381;SDS011;10350;51.280;12.400;2023-02-12T03:51:38;50.42;;;21.38;;
20381;SDS011;10350;51.280;12.400;2023-02-12T03:54:05;53.20;;;21.05;;
20381;SDS011;10350;51.280;12.400;2023-02-12T03:56:39;55.83;;;21.58;;
20381;SDS011;10350;51.280;12.400;2023-02-12T03:59:06;49.70;;;20.85;;
20381;SDS011;10350;51.280;12.400;2023-02-12T04:01:32;48.95;;;20.50;;
20381;SDS011;10350;51.280;12.400;2023-02-12T04:04:01;53.23;;;20.67;;
20381;SDS011;10350;51.280;12.400;2023-02-12T04:06:28;52.15;;;21.13;;
20381;SDS011;10350;51.280;12.400;2023-02-12T04:08:54;54.05;;;21.60;;
20381;SDS011;10350;51.280;12.400;2023-02-12T04:11:29;56.58;;;21.23;;
20381;SDS011;10350;51.280;12.400;2023-02-12T04:14:06;53.17;;;20.05;;
20381;SDS011;10350;51.280;12.400;2023-02-12T04:19:39;50.88;;;20.13;;
20381;SDS011;10350;51.280;12.400;2023-02-12T04:22:14;52.85;;;20.60;;
20381;SDS011;10350;51.280;12.400;2023-02-12T04:24:45;54.88;;;19.50;;
20381;SDS011;10350;51.280;12.400;2023-02-12T04:27:19;51.13;;;18.75;;
20381;SDS011;10350;51.280;12.400;2023-02-12T04:29:52;42.60;;;19.50;;
20381;SDS011;10350;51.280;12.400;2023-02-12T04:37:17;51.53;;;18.98;;
20381;SDS011;10350;51.280;12.400;2023-02-12T04:39:44;53.10;;;19.10;;
20381;SDS011;10350;51.280;12.400;2023-02-12T04:42:10;48.10;;;19.55;;
20381;SDS011;10350;51.280;12.400;2023-02-12T04:44:37;47.38;;;18.48;;
20381;SDS011;10350;51.280;12.400;2023-02-12T04:47:03;47.67;;;19.83;;
20381;SDS011;10350;51.280;12.400;2023-02-12T04:49:29;49.70;;;20.50;;
20381;SDS011;10350;51.280;12.400;2023-02-12T04:51:55;44.13;;;20.38;;
20381;SDS011;10350;51.280;12.400;2023-02-12T04:54:22;47.55;;;20.25;;
20381;SDS011;10350;51.280;12.400;2023-02-12T04:56:48;44.40;;;18.13;;
20381;SDS011;10350;51.280;12.400;2023-02-12T04:59:14;46.92;;;19.30;;
20381;SDS011;10350;51.280;12.400;2023-02-12T05:01:40;44.17;;;18.70;;
20381;SDS011;10350;51.280;12.400;2023-02-12T05:04:07;43.97;;;19.33;;
20381;SDS011;10350;51.280;12.400;2023-02-12T05:06:33;40.67;;;18.08;;
20381;SDS011;10350;51.280;12.400;2023-02-12T05:09:00;42.38;;;18.92;;
20381;SDS011;10350;51.280;12.400;2023-02-12T05:11:26;43.13;;;19.10;;
20381;SDS011;10350;51.280;12.400;2023-02-12T05:13:52;43.22;;;17.95;;
20381;SDS011;10350;51.280;12.400;2023-02-12T05:16:18;46.72;;;19.50;;
20381;SDS011;10350;51.280;12.400;2023-02-12T05:18:45;51.47;;;18.50;;
20381;SDS011;10350;51.280;12.400;2023-02-12T05:21:11;52.88;;;20.30;;
20381;SDS011;10350;51.280;12.400;2023-02-12T05:23:37;44.60;;;19.30;;
20381;SDS011;10350;51.280;12.400;2023-02-12T05:26:04;51.25;;;19.15;;
20381;SDS011;10350;51.280;12.400;2023-02-12T05:28:31;43.42;;;19.45;;
20381;SDS011;10350;51.280;12.400;2023-02-12T05:31:00;39.60;;;18.17;;
20381;SDS011;10350;51.280;12.400;2023-02-12T05:33:27;50.47;;;18.77;;
20381;SDS011;10350;51.280;12.400;2023-02-12T05:35:53;53.13;;;20.88;;
20381;SDS011;10350;51.280;12.400;2023-02-12T05:38:19;46.17;;;18.83;;
20381;SDS011;10350;51.280;12.400;2023-02-12T05:40:45;51.42;;;19.90;;
20381;SDS011;10350;51.280;12.400;2023-02-12T05:43:11;47.30;;;19.13;;
20381;SDS011;10350;51.280;12.400;2023-02-12T05:45:37;45.30;;;18.15;;
20381;SDS011;10350;51.280;12.400;2023-02-12T05:48:05;47.63;;;19.85;;
20381;SDS011;10350;51.280;12.400;2023-02-12T05:50:31;60.70;;;19.90;;
20381;SDS011;10350;51.280;12.400;2023-02-12T05:52:58;46.33;;;18.83;;
20381;SDS011;10350;51.280;12.400;2023-02-12T05:55:24;50.47;;;18.70;;
20381;SDS011;10350;51.280;12.400;2023-02-12T05:57:50;43.40;;;18.80;;
20381;SDS011;10350;51.280;12.400;2023-02-12T06:00:16;48.25;;;18.33;;
20381;SDS011;10350;51.280;12.400;2023-02-12T06:02:42;47.75;;;19.70;;
20381;SDS011;10350;51.280;12.400;2023-02-12T06:05:08;48.72;;;21.17;;
20381;SDS011;10350;51.280;12.400;2023-02-12T06:07:34;46.72;;;19.48;;
20381;SDS011;10350;51.280;12.400;2023-02-12T06:09:59;47.00;;;18.98;;
20381;SDS011;10350;51.280;12.400;2023-02-12T06:12:25;49.47;;;19.77;;
20381;SDS011;10350;51.280;12.400;2023-02-12T06:14:51;56.47;;;20.60;;
20381;SDS011;10350;51.280;12.400;2023-02-12T06:17:17;48.63;;;19.10;;
20381;SDS011;10350;51.280;12.400;2023-02-12T06:19:43;49.20;;;19.55;;
20381;SDS011;10350;51.280;12.400;2023-02-12T06:22:09;47.65;;;20.67;;
20381;SDS011;10350;51.280;12.400;2023-02-12T06:24:35;56.80;;;21.73;;
20381;SDS011;10350;51.280;12.400;2023-02-12T06:27:01;56.92;;;21.05;;
20381;SDS011;10350;51.280;12.400;2023-02-12T06:29:27;53.95;;;21.35;;
20381;SDS011;10350;51.280;12.400;2023-02-12T06:31:53;58.40;;;22.48;;
20381;SDS011;10350;51.280;12.400;2023-02-12T06:34:19;52.88;;;20.67;;
20381;SDS011;10350;51.280;12.400;2023-02-12T06:36:45;56.20;;;21.92;;
20381;SDS011;10350;51.280;12.400;2023-02-12T06:39:12;55.30;;;21.40;;
20381;SDS011;10350;51.280;12.400;2023-02-12T06:41:39;57.30;;;21.95;;
20381;SDS011;10350;51.280;12.400;2023-02-12T06:44:05;57.30;;;21.40;;
20381;SDS011;10350;51.280;12.400;2023-02-12T06:46:31;50.38;;;20.38;;
20381;SDS011;10350;51.280;12.400;2023-02-12T06:48:57;56.40;;;22.23;;
20381;SDS011;10350;51.280;12.400;2023-02-12T06:51:24;50.13;;;21.25;;
20381;SDS011;10350;51.280;12.400;2023-02-12T06:53:50;50.65;;;21.27;;
20381;SDS011;10350;51.280;12.400;2023-02-12T06:56:17;53.15;;;21.20;;
20381;SDS011;10350;51.280;12.400;2023-02-12T06:58:44;59.42;;;21.10;;
20381;SDS011;10350;51.280;12.400;2023-02-12T07:01:14;52.45;;;19.48;;
20381;SDS011;10350;51.280;12.400;2023-02-12T07:03:42;54.65;;;21.13;;
20381;SDS011;10350;51.280;12.400;2023-02-12T07:06:08;58.80;;;21.80;;
20381;SDS011;10350;51.280;12.400;2023-02-12T07:08:34;50.97;;;20.75;;
20381;SDS011;10350;51.280;12.400;2023-02-12T07:11:00;53.63;;;21.35;;
20381;SDS011;10350;51.280;12.400;2023-02-12T07:13:26;58.30;;;19.70;;
20381;SDS011;10350;51.280;12.400;2023-02-12T07:15:52;48.85;;;21.00;;
20381;SDS011;10350;51.280;12.400;2023-02-12T07:18:18;44.05;;;19.02;;
20381;SDS011;10350;51.280;12.400;2023-02-12T07:20:44;51.38;;;19.90;;
20381;SDS011;10350;51.280;12.400;2023-02-12T07:23:10;53.35;;;21.65;;
20381;SDS011;10350;51.280;12.400;2023-02-12T07:25:36;57.22;;;21.40;;
20381;SDS011;10350;51.280;12.400;2023-02-12T07:28:02;49.33;;;19.05;;
20381;SDS011;10350;51.280;12.400;2023-02-12T07:30:28;58.17;;;20.90;;
20381;SDS011;10350;51.280;12.400;2023-02-12T07:32:54;53.78;;;22.17;;
20381;SDS011;10350;51.280;12.400;2023-02-12T07:35:20;50.28;;;20.80;;
20381;SDS011;10350;51.280;12.400;2023-02-12T07:37:46;57.22;;;22.10;;
20381;SDS011;10350;51.280;12.400;2023-02-12T07:40:12;57.33;;;22.02;;
20381;SDS011;10350;51.280;12.400;2023-02-12T07:42:38;46.58;;;20.70;;
20381;SDS011;10350;51.280;12.400;2023-02-12T07:45:04;52.13;;;20.55;;
20381;SDS011;10350;51.280;12.400;2023-02-12T07:47:30;47.30;;;20.42;;
20381;SDS011;10350;51.280;12.400;2023-02-12T07:49:56;55.30;;;21.27;;
20381;SDS011;10350;51.280;12.400;2023-02-12T07:52:22;53.75;;;21.88;;
20381;SDS011;10350;51.280;12.400;2023-02-12T07:54:48;43.17;;;18.77;;
20381;SDS011;10350;51.280;12.400;2023-02-12T07:57:13;49.53;;;19.58;;
20381;SDS011;10350;51.280;12.400;2023-02-12T07:59:39;51.22;;;19.95;;
20381;SDS011;10350;51.280;12.400;2023-02-12T08:02:05;46.58;;;20.42;;
20381;SDS011;10350;51.280;12.400;2023-02-12T08:04:31;49.72;;;19.90;;
20381;SDS011;10350;51.280;12.400;2023-02-12T08:06:57;46.40;;;19.63;;
20381;SDS011;10350;51.280;12.400;2023-02-12T08:09:24;48.45;;;21.77;;
20381;SDS011;10350;51.280;12.400;2023-02-12T08:11:50;58.42;;;24.45;;
20381;SDS011;10350;51.280;12.400;2023-02-12T08:14:18;59.60;;;25.50;;
20381;SDS011;10350;51.280;12.400;2023-02-12T08:16:44;53.87;;;22.57;;
20381;SDS011;10350;51.280;12.400;2023-02-12T08:19:11;49.67;;;20.23;;
20381;SDS011;10350;51.280;12.400;2023-02-12T08:21:37;50.17;;;25.50;;
20381;SDS011;10350;51.280;12.400;2023-02-12T08:24:03;52.90;;;22.58;;
20381;SDS011;10350;51.280;12.400;2023-02-12T08:26:30;46.67;;;19.88;;
20381;SDS011;10350;51.280;12.400;2023-02-12T08:28:58;47.33;;;19.38;;
20381;SDS011;10350;51.280;12.400;2023-02-12T08:31:26;48.67;;;19.35;;
20381;SDS011;10350;51.280;12.400;2023-02-12T08:33:53;45.63;;;19.02;;
20381;SDS011;10350;51.280;12.400;2023-02-12T08:36:20;43.28;;;19.73;;
20381;SDS011;10350;51.280;12.400;2023-02-12T08:38:46;49.03;;;19.40;;
20381;SDS011;10350;51.280;12.400;2023-02-12T08:41:13;52.30;;;20.73;;
20381;SDS011;10350;51.280;12.400;2023-02-12T08:43:40;69.13;;;20.98;;
20381;SDS011;10350;51.280;12.400;2023-02-12T08:46:07;52.75;;;20.77;;
20381;SDS011;10350;51.280;12.400;2023-02-12T08:48:34;52.90;;;20.57;;
20381;SDS011;10350;51.280;12.400;2023-02-12T08:51:03;47.65;;;20.73;;
20381;SDS011;10350;51.280;12.400;2023-02-12T08:53:30;44.88;;;20.20;;
20381;SDS011;10350;51.280;12.400;2023-02-12T08:55:56;45.50;;;20.10;;
20381;SDS011;10350;51.280;12.400;2023-02-12T08:58:22;55.33;;;21.25;;
20381;SDS011;10350;51.280;12.400;2023-02-12T09:00:47;47.17;;;20.98;;
20381;SDS011;10350;51.280;12.400;2023-02-12T09:03:13;61.72;;;22.40;;
20381;SDS011;10350;51.280;12.400;2023-02-12T09:05:39;50.47;;;20.80;;
20381;SDS011;10350;51.280;12.400;2023-02-12T09:08:05;51.60;;;21.98;;
20381;SDS011;10350;51.280;12.400;2023-02-12T09:10:31;53.75;;;22.70;;
20381;SDS011;10350;51.280;12.400;2023-02-12T09:12:57;50.83;;;22.02;;
20381;SDS011;10350;51.280;12.400;2023-02-12T09:15:23;60.08;;;22.67;;
20381;SDS011;10350;51.280;12.400;2023-02-12T09:17:49;57.50;;;23.90;;
20381;SDS011;10350;51.280;12.400;2023-02-12T09:20:15;55.08;;;22.08;;
20381;SDS011;10350;51.280;12.400;2023-02-12T09:22:41;57.33;;;22.65;;
20381;SDS011;10350;51.280;12.400;2023-02-12T09:25:07;56.38;;;22.92;;
20381;SDS011;10350;51.280;12.400;2023-02-12T09:27:33;67.47;;;21.60;;
20381;SDS011;10350;51.280;12.400;2023-02-12T09:29:58;55.38;;;21.83;;
20381;SDS011;10350;51.280;12.400;2023-02-12T09:32:24;56.05;;;22.90;;
20381;SDS011;10350;51.280;12.400;2023-02-12T09:34:50;49.78;;;21.30;;
20381;SDS011;10350;51.280;12.400;2023-02-12T09:37:16;57.13;;;22.52;;
20381;SDS011;10350;51.280;12.400;2023-02-12T09:39:42;57.70;;;22.67;;
20381;SDS011;10350;51.280;12.400;2023-02-12T09:42:18;46.78;;;20.70;;
20381;SDS011;10350;51.280;12.400;2023-02-12T09:50:00;47.97;;;21.80;;
20381;SDS011;10350;51.280;12.400;2023-02-12T09:52:28;45.15;;;19.50;;
20381;SDS011;10350;51.280;12.400;2023-02-12T09:54:55;46.05;;;20.65;;
20381;SDS011;10350;51.280;12.400;2023-02-12T09:57:34;43.53;;;20.08;;
20381;SDS011;10350;51.280;12.400;2023-02-12T10:00:10;46.72;;;20.60;;
20381;SDS011;10350;51.280;12.400;2023-02-12T10:02:39;42.72;;;21.23;;
20381;SDS011;10350;51.280;12.400;2023-02-12T10:05:15;44.45;;;21.48;;
20381;SDS011;10350;51.280;12.400;2023-02-12T10:21:00;39.25;;;19.25;;
20381;SDS011;10350;51.280;12.400;2023-02-12T10:25:57;36.75;;;19.58;;
20381;SDS011;10350;51.280;12.400;2023-02-12T10:28:30;36.20;;;18.50;;
20381;SDS011;10350;51.280;12.400;2023-02-12T10:30:59;30.10;;;16.58;;
20381;SDS011;10350;51.280;12.400;2023-02-12T10:33:35;31.40;;;15.98;;
20381;SDS011;10350;51.280;12.400;2023-02-12T10:36:48;38.72;;;16.67;;
20381;SDS011;10350;51.280;12.400;2023-02-12T10:38:49;35.70;;;16.42;;
20381;SDS011;10350;51.280;12.400;2023-02-12T10:41:17;29.42;;;16.67;;
20381;SDS011;10350;51.280;12.400;2023-02-12T10:43:43;33.95;;;16.58;;
20381;SDS011;10350;51.280;12.400;2023-02-12T10:46:15;35.92;;;15.80;;
20381;SDS011;10350;51.280;12.400;2023-02-12T10:48:43;36.10;;;16.33;;
20381;SDS011;10350;51.280;12.400;2023-02-12T10:51:14;38.45;;;16.83;;
20381;SDS011;10350;51.280;12.400;2023-02-12T10:53:45;33.60;;;16.60;;
20381;SDS011;10350;51.280;12.400;2023-02-12T10:58:39;37.25;;;19.67;;
20381;SDS011;10350;51.280;12.400;2023-02-12T11:01:05;37.92;;;19.75;;
20381;SDS011;10350;51.280;12.400;2023-02-12T11:03:39;38.35;;;19.15;;
20381;SDS011;10350;51.280;12.400;2023-02-12T11:06:14;33.58;;;18.38;;
20381;SDS011;10350;51.280;12.400;2023-02-12T11:08:40;38.85;;;18.50;;
20381;SDS011;10350;51.280;12.400;2023-02-12T11:11:07;40.60;;;17.25;;
20381;SDS011;10350;51.280;12.400;2023-02-12T11:13:34;29.35;;;16.10;;
20381;SDS011;10350;51.280;12.400;2023-02-12T11:16:00;35.50;;;16.83;;
20381;SDS011;10350;51.280;12.400;2023-02-12T11:18:27;33.72;;;17.08;;
20381;SDS011;10350;51.280;12.400;2023-02-12T11:21:00;37.10;;;17.23;;
20381;SDS011;10350;51.280;12.400;2023-02-12T11:23:40;32.47;;;15.73;;
20381;SDS011;10350;51.280;12.400;2023-02-12T11:28:58;28.05;;;15.18;;
20381;SDS011;10350;51.280;12.400;2023-02-12T11:31:32;26.20;;;13.77;;
20381;SDS011;10350;51.280;12.400;2023-02-12T11:34:06;27.90;;;15.02;;
20381;SDS011;10350;51.280;12.400;2023-02-12T11:36:34;27.77;;;14.07;;
20381;SDS011;10350;51.280;12.400;2023-02-12T11:39:01;21.92;;;12.88;;
20381;SDS011;10350;51.280;12.400;2023-02-12T11:41:37;28.27;;;13.57;;
20381;SDS011;10350;51.280;12.400;2023-02-12T11:44:18;25.75;;;14.30;;
20381;SDS011;10350;51.280;12.400;2023-02-12T11:46:55;25.25;;;13.63;;
20381;SDS011;10350;51.280;12.400;2023-02-12T11:49:23;25.77;;;13.43;;
20381;SDS011;10350;51.280;12.400;2023-02-12T11:51:49;25.85;;;13.77;;
20381;SDS011;10350;51.280;12.400;2023-02-12T11:54:18;27.02;;;13.48;;
20381;SDS011;10350;51.280;12.400;2023-02-12T11:56:46;29.13;;;14.00;;
20381;SDS011;10350;51.280;12.400;2023-02-12T12:02:00;25.42;;;13.43;;
20381;SDS011;10350;51.280;12.400;2023-02-12T12:04:26;29.67;;;14.50;;
20381;SDS011;10350;51.280;12.400;2023-02-12T12:15:16;29.17;;;14.68;;
20381;SDS011;10350;51.280;12.400;2023-02-12T12:18:15;30.48;;;15.02;;
20381;SDS011;10350;51.280;12.400;2023-02-12T12:23:57;34.70;;;16.17;;
20381;SDS011;10350;51.280;12.400;2023-02-12T12:26:26;30.80;;;14.75;;
20381;SDS011;10350;51.280;12.400;2023-02-12T12:31:34;34.22;;;16.17;;
20381;SDS011;10350;51.280;12.400;2023-02-12T12:34:04;29.00;;;14.57;;
20381;SDS011;10350;51.280;12.400;2023-02-12T12:36:47;33.65;;;14.60;;
20381;SDS011;10350;51.280;12.400;2023-02-12T12:39:23;34.25;;;15.90;;
20381;SDS011;10350;51.280;12.400;2023-02-12T12:47:21;33.33;;;16.05;;
20381;SDS011;10350;51.280;12.400;2023-02-12T12:50:17;33.50;;;16.10;;
20381;SDS011;10350;51.280;12.400;2023-02-12T12:53:03;33.55;;;15.55;;
20381;SDS011;10350;51.280;12.400;2023-02-12T12:55:41;37.37;;;16.50;;
20381;SDS011;10350;51.280;12.400;2023-02-12T12:58:11;33.05;;;15.60;;
20381;SDS011;10350;51.280;12.400;2023-02-12T13:03:17;32.92;;;16.40;;
20381;SDS011;10350;51.280;12.400;2023-02-12T13:08:34;37.80;;;17.33;;
20381;SDS011;10350;51.280;12.400;2023-02-12T13:13:48;38.58;;;16.02;;
20381;SDS011;10350;51.280;12.400;2023-02-12T13:16:20;40.17;;;17.20;;
20381;SDS011;10350;51.280;12.400;2023-02-12T13:18:50;40.60;;;17.30;;
20381;SDS011;10350;51.280;12.400;2023-02-12T13:21:36;45.00;;;16.95;;
20381;SDS011;10350;51.280;12.400;2023-02-12T13:24:19;41.75;;;18.45;;
20381;SDS011;10350;51.280;12.400;2023-02-12T13:26:55;36.80;;;16.95;;
20381;SDS011;10350;51.280;12.400;2023-02-12T13:29:23;39.30;;;17.63;;
20381;SDS011;10350;51.280;12.400;2023-02-12T13:34:22;41.95;;;17.33;;
20381;SDS011;10350;51.280;12.400;2023-02-12T13:36:52;37.30;;;17.27;;
20381;SDS011;10350;51.280;12.400;2023-02-12T13:44:40;42.33;;;17.48;;
20381;SDS011;10350;51.280;12.400;2023-02-12T13:47:14;37.53;;;17.23;;
20381;SDS011;10350;51.280;12.400;2023-02-12T13:49:49;39.97;;;18.42;;
20381;SDS011;10350;51.280;12.400;2023-02-12T13:55:03;38.60;;;17.85;;
20381;SDS011;10350;51.280;12.400;2023-02-12T13:57:34;46.47;;;18.67;;
20381;SDS011;10350;51.280;12.400;2023-02-12T14:00:00;48.88;;;20.42;;
20381;SDS011;10350;51.280;12.400;2023-02-12T14:05:04;46.13;;;19.42;;
20381;SDS011;10350;51.280;12.400;2023-02-12T14:07:42;42.95;;;18.95;;
20381;SDS011;10350;51.280;12.400;2023-02-12T14:10:19;44.80;;;20.25;;
20381;SDS011;10350;51.280;12.400;2023-02-12T14:12:45;43.03;;;18.98;;
20381;SDS011;10350;51.280;12.400;2023-02-12T14:15:24;48.60;;;21.05;;
20381;SDS011;10350;51.280;12.400;2023-02-12T14:20:40;45.60;;;20.75;;
20381;SDS011;10350;51.280;12.400;2023-02-12T14:23:23;45.20;;;21.25;;
20381;SDS011;10350;51.280;12.400;2023-02-12T14:28:31;47.63;;;20.50;;
20381;SDS011;10350;51.280;12.400;2023-02-12T14:33:46;52.47;;;20.60;;
20381;SDS011;10350;51.280;12.400;2023-02-12T14:41:21;67.45;;;23.90;;
20381;SDS011;10350;51.280;12.400;2023-02-12T14:46:54;56.78;;;23.52;;
20381;SDS011;10350;51.280;12.400;2023-02-12T14:49:22;56.28;;;22.55;;
20381;SDS011;10350;51.280;12.400;2023-02-12T14:56:52;60.60;;;24.35;;
20381;SDS011;10350;51.280;12.400;2023-02-12T14:59:22;55.97;;;24.98;;
20381;SDS011;10350;51.280;12.400;2023-02-12T15:01:49;60.50;;;25.37;;
20381;SDS011;10350;51.280;12.400;2023-02-12T15:04:16;54.95;;;23.10;;
20381;SDS011;10350;51.280;12.400;2023-02-12T15:10:12;54.60;;;23.23;;
20381;SDS011;10350;51.280;12.400;2023-02-12T15:12:41;54.17;;;22.50;;
20381;SDS011;10350;51.280;12.400;2023-02-12T15:17:38;58.97;;;24.92;;
20381;SDS011;10350;51.280;12.400;2023-02-12T15:20:27;57.38;;;25.35;;
20381;SDS011;10350;51.280;12.400;2023-02-12T15:22:56;58.80;;;25.13;;
20381;SDS011;10350;51.280;12.400;2023-02-12T15:25:31;61.35;;;24.27;;
20381;SDS011;10350;51.280;12.400;2023-02-12T15:28:10;53.92;;;24.77;;
20381;SDS011;10350;51.280;12.400;2023-02-12T15:30:41;51.97;;;22.95;;
20381;SDS011;10350;51.280;12.400;2023-02-12T15:33:07;52.33;;;23.67;;
20381;SDS011;10350;51.280;12.400;2023-02-12T15:35:38;52.22;;;23.23;;
20381;SDS011;10350;51.280;12.400;2023-02-12T15:38:04;50.40;;;22.95;;
20381;SDS011;10350;51.280;12.400;2023-02-12T15:40:31;44.25;;;21.90;;
20381;SDS011;10350;51.280;12.400;2023-02-12T15:43:04;49.35;;;22.83;;
20381;SDS011;10350;51.280;12.400;2023-02-12T15:45:32;48.80;;;21.55;;
20381;SDS011;10350;51.280;12.400;2023-02-12T15:50:33;47.90;;;22.17;;
20381;SDS011;10350;51.280;12.400;2023-02-12T15:53:00;49.92;;;20.88;;
20381;SDS011;10350;51.280;12.400;2023-02-12T15:55:27;51.25;;;21.23;;
20381;SDS011;10350;51.280;12.400;2023-02-12T15:57:55;40.88;;;20.33;;
20381;SDS011;10350;51.280;12.400;2023-02-12T16:00:29;46.53;;;21.60;;
20381;SDS011;10350;51.280;12.400;2023-02-12T16:02:56;47.03;;;20.25;;
20381;SDS011;10350;51.280;12.400;2023-02-12T16:05:22;43.97;;;20.92;;
20381;SDS011;10350;51.280;12.400;2023-02-12T16:07:49;53.15;;;23.00;;
20381;SDS011;10350;51.280;12.400;2023-02-12T16:10:16;40.17;;;21.40;;
20381;SDS011;10350;51.280;12.400;2023-02-12T16:12:42;51.00;;;21.73;;
20381;SDS011;10350;51.280;12.400;2023-02-12T16:15:24;46.40;;;22.00;;
20381;SDS011;10350;51.280;12.400;2023-02-12T16:17:50;45.30;;;19.70;;
20381;SDS011;10350;51.280;12.400;2023-02-12T16:22:43;42.92;;;19.58;;